sensor_id;sensor_type;location;lat;lon;timestamp;P1;durP1;ratioP1;P2;durP2;ratioP2
43803;SDS011;29430;52.924;-2.388;2023-12-28T00:04:28;12.55;;;0.80;;
43803;SDS011;29430;52.924;-2.388;2023-12-28T00:09:21;17.30;;;1.65;;
43803;SDS011;29430;52.924;-2.388;2023-12-28T00:14:12;19.00;;;1.50;;
43803;SDS011;29430;52.924;-2.388;2023-12-28T00:19:04;14.98;;;1.25;;
43803;SDS011;29430;52.924;-2.388;2023-12-28T00:23:56;22.33;;;1.83;;
43803;SDS011;29430;52.924;-2.388;2023-12-28T00:28:48;20.65;;;3.15;;
43803;SDS011;29430;52.924;-2.388;2023-12-28T00:33:40;17.80;;;2.65;;
43803;SDS011;29430;52.924;-2.388;2023-12-28T00:38:32;19.75;;;1.73;;
43803;SDS011;29430;52.924;-2.388;2023-12-28T00:43:23;19.45;;;1.45;;
43803;SDS011;29430;52.924;-2.388;2023-12-28T00:48:15;19.58;;;1.70;;
43803;SDS011;29430;52.924;-2.388;2023-12-28T00:53:07;22.98;;;1.48;;
43803;SDS011;29430;52.924;-2.388;2023-12-28T00:57:59;23.52;;;2.17;;
43803;SDS011;29430;52.924;-2.388;2023-12-28T01:02:51;22.00;;;2.10;;
43803;SDS011;29430;52.924;-2.388;2023-12-28T01:07:43;20.25;;;2.28;;
43803;SDS011;29430;52.924;-2.388;2023-12-28T01:12:34;25.48;;;2.35;;
43803;SDS011;29430;52.924;-2.388;2023-12-28T01:17:26;27.50;;;4.55;;
43803;SDS011;29430;52.924;-2.388;2023-12-28T01:22:18;21.05;;;2.47;;
43803;SDS011;29430;52.924;-2.388;2023-12-28T01:27:09;23.00;;;2.10;;
43803;SDS011;29430;52.924;-2.388;2023-12-28T01:36:54;22.40;;;2.28;;
43803;SDS011;29430;52.924;-2.388;2023-12-28T01:41:46;20.33;;;2.15;;
43803;SDS011;29430;52.924;-2.388;2023-12-28T01:46:37;15.20;;;1.88;;
43803;SDS011;29430;52.924;-2.388;2023-12-28T01:51:30;25.90;;;1.83;;
43803;SDS011;29430;52.924;-2.388;2023-12-28T01:56:23;17.92;;;1.40;;
43803;SDS011;29430;52.924;-2.388;2023-12-28T02:01:15;21.65;;;2.20;;
43803;SDS011;29430;52.924;-2.388;2023-12-28T02:06:10;18.02;;;1.83;;
43803;SDS011;29430;52.924;-2.388;2023-12-28T02:11:02;19.52;;;2.00;;
43803;SDS011;29430;52.924;-2.388;2023-12-28T02:15:57;17.00;;;1.50;;
43803;SDS011;29430;52.924;-2.388;2023-12-28T02:20:53;14.68;;;1.48;;
43803;SDS011;29430;52.924;-2.388;2023-12-28T02:25:45;19.05;;;1.42;;
43803;SDS011;29430;52.924;-2.388;2023-12-28T02:30:37;15.63;;;1.33;;
43803;SDS011;29430;52.924;-2.388;2023-12-28T02:35:29;17.63;;;1.75;;
43803;SDS011;29430;52.924;-2.388;2023-12-28T02:40:27;19.75;;;1.88;;
43803;SDS011;29430;52.924;-2.388;2023-12-28T02:45:19;25.52;;;2.85;;
43803;SDS011;29430;52.924;-2.388;2023-12-28T02:50:11;22.75;;;2.63;;
43803;SDS011;29430;52.924;-2.388;2023-12-28T02:55:03;17.85;;;1.90;;
43803;SDS011;29430;52.924;-2.388;2023-12-28T02:59:55;23.83;;;2.38;;
43803;SDS011;29430;52.924;-2.388;2023-12-28T03:04:48;24.60;;;2.03;;
43803;SDS011;29430;52.924;-2.388;2023-12-28T03:09:39;15.40;;;1.80;;
43803;SDS011;29430;52.924;-2.388;2023-12-28T03:14:32;25.90;;;2.30;;
43803;SDS011;29430;52.924;-2.388;2023-12-28T03:19:23;19.58;;;2.60;;
43803;SDS011;29430;52.924;-2.388;2023-12-28T03:24:15;15.32;;;1.33;;
43803;SDS011;29430;52.924;-2.388;2023-12-28T03:29:07;22.08;;;2.03;;
43803;SDS011;29430;52.924;-2.388;2023-12-28T03:33:59;19.35;;;1.48;;
43803;SDS011;29430;52.924;-2.388;2023-12-28T03:38:51;23.98;;;2.20;;
43803;SDS011;29430;52.924;-2.388;2023-12-28T03:43:43;21.85;;;2.10;;
43803;SDS011;29430;52.924;-2.388;2023-12-28T03:48:35;22.23;;;2.70;;
43803;SDS011;29430;52.924;-2.388;2023-12-28T03:53:28;31.83;;;2.80;;
43803;SDS011;29430;52.924;-2.388;2023-12-28T03:58:20;16.45;;;1.20;;
43803;SDS011;29430;52.924;-2.388;2023-12-28T04:03:11;22.05;;;1.90;;
43803;SDS011;29430;52.924;-2.388;2023-12-28T04:08:03;21.10;;;2.70;;
43803;SDS011;29430;52.924;-2.388;2023-12-28T04:12:55;19.25;;;1.90;;
43803;SDS011;29430;52.924;-2.388;2023-12-28T04:17:49;16.38;;;3.00;;
43803;SDS011;29430;52.924;-2.388;2023-12-28T04:22:41;25.23;;;2.15;;
43803;SDS011;29430;52.924;-2.388;2023-12-28T04:27:34;18.23;;;1.95;;
43803;SDS011;29430;52.924;-2.388;2023-12-28T04:32:26;27.98;;;2.38;;
43803;SDS011;29430;52.924;-2.388;2023-12-28T04:37:18;29.25;;;3.38;;
43803;SDS011;29430;52.924;-2.388;2023-12-28T04:42:10;23.23;;;2.10;;
43803;SDS011;29430;52.924;-2.388;2023-12-28T04:47:01;24.40;;;2.22;;
43803;SDS011;29430;52.924;-2.388;2023-12-28T04:51:53;24.30;;;2.22;;
43803;SDS011;29430;52.924;-2.388;2023-12-28T04:56:45;20.45;;;2.03;;
43803;SDS011;29430;52.924;-2.388;2023-12-28T05:01:43;24.52;;;2.13;;
43803;SDS011;29430;52.924;-2.388;2023-12-28T05:06:41;23.65;;;2.47;;
43803;SDS011;29430;52.924;-2.388;2023-12-28T05:11:33;23.13;;;2.08;;
43803;SDS011;29430;52.924;-2.388;2023-12-28T05:16:24;22.52;;;1.92;;
43803;SDS011;29430;52.924;-2.388;2023-12-28T05:21:16;20.95;;;2.10;;
43803;SDS011;29430;52.924;-2.388;2023-12-28T05:26:08;19.88;;;1.80;;
43803;SDS011;29430;52.924;-2.388;2023-12-28T05:30:59;23.75;;;2.17;;
43803;SDS011;29430;52.924;-2.388;2023-12-28T05:35:51;20.35;;;1.27;;
43803;SDS011;29430;52.924;-2.388;2023-12-28T05:40:43;19.05;;;1.38;;
43803;SDS011;29430;52.924;-2.388;2023-12-28T05:45:36;23.85;;;1.52;;
43803;SDS011;29430;52.924;-2.388;2023-12-28T05:50:27;23.85;;;2.03;;
43803;SDS011;29430;52.924;-2.388;2023-12-28T05:55:19;14.60;;;1.75;;
43803;SDS011;29430;52.924;-2.388;2023-12-28T06:00:11;15.55;;;1.30;;
43803;SDS011;29430;52.924;-2.388;2023-12-28T06:05:03;21.02;;;1.92;;
43803;SDS011;29430;52.924;-2.388;2023-12-28T06:09:55;17.50;;;1.45;;
43803;SDS011;29430;52.924;-2.388;2023-12-28T06:14:47;17.63;;;2.78;;
43803;SDS011;29430;52.924;-2.388;2023-12-28T06:19:39;11.80;;;1.08;;
43803;SDS011;29430;52.924;-2.388;2023-12-28T06:24:30;19.17;;;1.20;;
43803;SDS011;29430;52.924;-2.388;2023-12-28T06:29:22;14.98;;;1.00;;
43803;SDS011;29430;52.924;-2.388;2023-12-28T06:34:14;18.17;;;1.42;;
43803;SDS011;29430;52.924;-2.388;2023-12-28T06:39:06;18.35;;;1.92;;
43803;SDS011;29430;52.924;-2.388;2023-12-28T06:43:58;20.60;;;1.08;;
43803;SDS011;29430;52.924;-2.388;2023-12-28T06:48:49;11.70;;;0.90;;
43803;SDS011;29430;52.924;-2.388;2023-12-28T06:53:41;12.38;;;0.90;;
43803;SDS011;29430;52.924;-2.388;2023-12-28T06:58:33;10.45;;;0.60;;
43803;SDS011;29430;52.924;-2.388;2023-12-28T07:03:25;13.20;;;0.75;;
43803;SDS011;29430;52.924;-2.388;2023-12-28T07:08:16;9.25;;;0.50;;
43803;SDS011;29430;52.924;-2.388;2023-12-28T07:13:08;10.75;;;0.70;;
43803;SDS011;29430;52.924;-2.388;2023-12-28T07:18:00;14.35;;;0.70;;
43803;SDS011;29430;52.924;-2.388;2023-12-28T07:22:52;8.30;;;0.68;;
43803;SDS011;29430;52.924;-2.388;2023-12-28T07:27:45;11.45;;;1.02;;
43803;SDS011;29430;52.924;-2.388;2023-12-28T07:32:37;11.80;;;1.00;;
43803;SDS011;29430;52.924;-2.388;2023-12-28T07:37:28;8.23;;;1.05;;
43803;SDS011;29430;52.924;-2.388;2023-12-28T07:42:20;5.53;;;0.60;;
43803;SDS011;29430;52.924;-2.388;2023-12-28T07:47:12;6.93;;;0.50;;
43803;SDS011;29430;52.924;-2.388;2023-12-28T07:52:04;8.07;;;0.93;;
43803;SDS011;29430;52.924;-2.388;2023-12-28T07:56:56;8.80;;;0.50;;
43803;SDS011;29430;52.924;-2.388;2023-12-28T08:01:48;7.75;;;0.40;;
43803;SDS011;29430;52.924;-2.388;2023-12-28T08:06:40;7.90;;;0.93;;
43803;SDS011;29430;52.924;-2.388;2023-12-28T08:11:31;4.45;;;0.20;;
43803;SDS011;29430;52.924;-2.388;2023-12-28T08:16:23;4.93;;;0.30;;
43803;SDS011;29430;52.924;-2.388;2023-12-28T08:21:15;4.00;;;0.28;;
43803;SDS011;29430;52.924;-2.388;2023-12-28T08:26:06;2.80;;;0.30;;
43803;SDS011;29430;52.924;-2.388;2023-12-28T08:30:58;3.25;;;0.40;;
43803;SDS011;29430;52.924;-2.388;2023-12-28T08:35:50;10.10;;;0.47;;
43803;SDS011;29430;52.924;-2.388;2023-12-28T08:40:42;9.55;;;0.47;;
43803;SDS011;29430;52.924;-2.388;2023-12-28T08:45:35;4.82;;;0.40;;
43803;SDS011;29430;52.924;-2.388;2023-12-28T08:50:27;8.20;;;1.45;;
43803;SDS011;29430;52.924;-2.388;2023-12-28T08:55:19;7.35;;;0.60;;
43803;SDS011;29430;52.924;-2.388;2023-12-28T09:00:11;9.35;;;0.50;;
43803;SDS011;29430;52.924;-2.388;2023-12-28T09:05:06;8.15;;;0.80;;
43803;SDS011;29430;52.924;-2.388;2023-12-28T09:09:58;13.18;;;0.60;;
43803;SDS011;29430;52.924;-2.388;2023-12-28T09:14:50;10.13;;;0.50;;
43803;SDS011;29430;52.924;-2.388;2023-12-28T09:19:44;7.95;;;0.75;;
43803;SDS011;29430;52.924;-2.388;2023-12-28T09:24:35;8.88;;;0.80;;
43803;SDS011;29430;52.924;-2.388;2023-12-28T09:29:27;6.53;;;0.50;;
43803;SDS011;29430;52.924;-2.388;2023-12-28T09:34:19;8.13;;;0.50;;
43803;SDS011;29430;52.924;-2.388;2023-12-28T09:39:10;14.60;;;0.98;;
43803;SDS011;29430;52.924;-2.388;2023-12-28T09:44:10;12.95;;;0.82;;
43803;SDS011;29430;52.924;-2.388;2023-12-28T09:49:03;11.00;;;0.63;;
43803;SDS011;29430;52.924;-2.388;2023-12-28T09:53:56;13.35;;;1.73;;
43803;SDS011;29430;52.924;-2.388;2023-12-28T09:58:48;11.60;;;0.50;;
43803;SDS011;29430;52.924;-2.388;2023-12-28T10:03:42;11.43;;;0.57;;
43803;SDS011;29430;52.924;-2.388;2023-12-28T10:08:34;10.52;;;0.80;;
43803;SDS011;29430;52.924;-2.388;2023-12-28T10:13:27;10.40;;;0.60;;
43803;SDS011;29430;52.924;-2.388;2023-12-28T10:18:19;10.93;;;0.70;;
43803;SDS011;29430;52.924;-2.388;2023-12-28T10:23:11;8.48;;;0.50;;
43803;SDS011;29430;52.924;-2.388;2023-12-28T10:28:03;9.02;;;0.60;;
43803;SDS011;29430;52.924;-2.388;2023-12-28T10:32:57;6.85;;;0.60;;
43803;SDS011;29430;52.924;-2.388;2023-12-28T10:37:51;6.50;;;0.80;;
43803;SDS011;29430;52.924;-2.388;2023-12-28T10:42:48;5.82;;;0.30;;
43803;SDS011;29430;52.924;-2.388;2023-12-28T10:47:43;6.35;;;0.30;;
43803;SDS011;29430;52.924;-2.388;2023-12-28T10:52:56;5.35;;;0.30;;
43803;SDS011;29430;52.924;-2.388;2023-12-28T10:58:01;2.28;;;0.20;;
43803;SDS011;29430;52.924;-2.388;2023-12-28T11:03:03;8.32;;;0.68;;
43803;SDS011;29430;52.924;-2.388;2023-12-28T11:08:00;2.45;;;0.30;;
43803;SDS011;29430;52.924;-2.388;2023-12-28T11:12:54;6.60;;;0.50;;
43803;SDS011;29430;52.924;-2.388;2023-12-28T11:17:48;9.07;;;1.25;;
43803;SDS011;29430;52.924;-2.388;2023-12-28T11:22:40;17.58;;;0.93;;
43803;SDS011;29430;52.924;-2.388;2023-12-28T11:27:35;11.77;;;1.50;;
43803;SDS011;29430;52.924;-2.388;2023-12-28T11:32:35;11.35;;;1.45;;
43803;SDS011;29430;52.924;-2.388;2023-12-28T11:37:27;10.55;;;1.20;;
43803;SDS011;29430;52.924;-2.388;2023-12-28T11:42:21;5.88;;;0.30;;
43803;SDS011;29430;52.924;-2.388;2023-12-28T11:47:15;1.80;;;0.20;;
43803;SDS011;29430;52.924;-2.388;2023-12-28T11:52:22;1.35;;;0.10;;
43803;SDS011;29430;52.924;-2.388;2023-12-28T11:57:24;1.08;;;0.10;;
43803;SDS011;29430;52.924;-2.388;2023-12-28T12:02:15;0.52;;;0.00;;
43803;SDS011;29430;52.924;-2.388;2023-12-28T12:07:07;0.85;;;0.00;;
43803;SDS011;29430;52.924;-2.388;2023-12-28T12:12:00;0.20;;;0.00;;
43803;SDS011;29430;52.924;-2.388;2023-12-28T12:16:52;1.58;;;0.20;;
43803;SDS011;29430;52.924;-2.388;2023-12-28T12:21:47;1.55;;;0.10;;
43803;SDS011;29430;52.924;-2.388;2023-12-28T12:26:39;2.08;;;0.28;;
43803;SDS011;29430;52.924;-2.388;2023-12-28T12:31:31;2.75;;;0.28;;
43803;SDS011;29430;52.924;-2.388;2023-12-28T12:36:23;4.18;;;0.20;;
43803;SDS011;29430;52.924;-2.388;2023-12-28T12:41:14;3.10;;;0.30;;
43803;SDS011;29430;52.924;-2.388;2023-12-28T12:46:06;2.55;;;0.25;;
43803;SDS011;29430;52.924;-2.388;2023-12-28T12:51:01;2.33;;;0.20;;
43803;SDS011;29430;52.924;-2.388;2023-12-28T12:55:54;3.22;;;0.68;;
43803;SDS011;29430;52.924;-2.388;2023-12-28T13:00:46;8.57;;;0.60;;
43803;SDS011;29430;52.924;-2.388;2023-12-28T13:05:38;9.40;;;0.70;;
43803;SDS011;29430;52.924;-2.388;2023-12-28T13:10:30;11.88;;;0.80;;
43803;SDS011;29430;52.924;-2.388;2023-12-28T13:15:22;12.60;;;0.80;;
43803;SDS011;29430;52.924;-2.388;2023-12-28T13:20:14;9.63;;;1.33;;
43803;SDS011;29430;52.924;-2.388;2023-12-28T13:25:06;13.02;;;1.52;;
43803;SDS011;29430;52.924;-2.388;2023-12-28T13:29:58;15.45;;;1.00;;
43803;SDS011;29430;52.924;-2.388;2023-12-28T13:34:50;7.25;;;0.70;;
43803;SDS011;29430;52.924;-2.388;2023-12-28T13:39:44;5.55;;;0.60;;
43803;SDS011;29430;52.924;-2.388;2023-12-28T13:44:36;4.60;;;0.40;;
43803;SDS011;29430;52.924;-2.388;2023-12-28T13:49:28;3.38;;;0.30;;
43803;SDS011;29430;52.924;-2.388;2023-12-28T13:54:20;4.47;;;0.40;;
43803;SDS011;29430;52.924;-2.388;2023-12-28T13:59:12;7.07;;;0.47;;
43803;SDS011;29430;52.924;-2.388;2023-12-28T14:04:04;5.50;;;0.50;;
43803;SDS011;29430;52.924;-2.388;2023-12-28T14:08:56;5.80;;;0.20;;
43803;SDS011;29430;52.924;-2.388;2023-12-28T14:13:48;5.35;;;0.30;;
43803;SDS011;29430;52.924;-2.388;2023-12-28T14:18:40;2.50;;;0.30;;
43803;SDS011;29430;52.924;-2.388;2023-12-28T14:23:33;6.57;;;1.40;;
43803;SDS011;29430;52.924;-2.388;2023-12-28T14:28:25;6.05;;;0.52;;
43803;SDS011;29430;52.924;-2.388;2023-12-28T14:33:18;7.28;;;0.47;;
43803;SDS011;29430;52.924;-2.388;2023-12-28T14:38:10;9.57;;;0.98;;
43803;SDS011;29430;52.924;-2.388;2023-12-28T14:43:02;11.52;;;0.90;;
43803;SDS011;29430;52.924;-2.388;2023-12-28T14:47:54;19.50;;;0.80;;
43803;SDS011;29430;52.924;-2.388;2023-12-28T14:52:46;10.90;;;0.75;;
43803;SDS011;29430;52.924;-2.388;2023-12-28T14:57:38;14.98;;;0.90;;
43803;SDS011;29430;52.924;-2.388;2023-12-28T15:02:30;9.45;;;0.45;;
43803;SDS011;29430;52.924;-2.388;2023-12-28T15:07:21;10.82;;;0.70;;
43803;SDS011;29430;52.924;-2.388;2023-12-28T15:12:13;12.27;;;0.85;;
43803;SDS011;29430;52.924;-2.388;2023-12-28T15:17:05;14.50;;;2.10;;
43803;SDS011;29430;52.924;-2.388;2023-12-28T15:22:00;21.20;;;1.20;;
43803;SDS011;29430;52.924;-2.388;2023-12-28T15:26:52;14.15;;;1.10;;
43803;SDS011;29430;52.924;-2.388;2023-12-28T15:31:44;12.90;;;1.33;;
43803;SDS011;29430;52.924;-2.388;2023-12-28T15:36:36;10.35;;;0.98;;
43803;SDS011;29430;52.924;-2.388;2023-12-28T15:41:27;17.17;;;1.58;;
43803;SDS011;29430;52.924;-2.388;2023-12-28T15:46:19;14.07;;;0.88;;
43803;SDS011;29430;52.924;-2.388;2023-12-28T15:51:11;11.60;;;0.70;;
43803;SDS011;29430;52.924;-2.388;2023-12-28T15:56:02;14.77;;;1.58;;
43803;SDS011;29430;52.924;-2.388;2023-12-28T16:01:08;18.00;;;1.40;;
43803;SDS011;29430;52.924;-2.388;2023-12-28T16:06:01;12.75;;;1.27;;
43803;SDS011;29430;52.924;-2.388;2023-12-28T16:10:52;24.10;;;1.35;;
43803;SDS011;29430;52.924;-2.388;2023-12-28T16:15:46;12.45;;;1.00;;
43803;SDS011;29430;52.924;-2.388;2023-12-28T16:20:38;19.60;;;1.50;;
43803;SDS011;29430;52.924;-2.388;2023-12-28T16:25:30;15.73;;;1.10;;
43803;SDS011;29430;52.924;-2.388;2023-12-28T16:30:21;20.45;;;2.33;;
43803;SDS011;29430;52.924;-2.388;2023-12-28T16:35:13;17.30;;;1.08;;
43803;SDS011;29430;52.924;-2.388;2023-12-28T16:40:05;25.13;;;1.65;;
43803;SDS011;29430;52.924;-2.388;2023-12-28T16:45:01;23.30;;;4.20;;
43803;SDS011;29430;52.924;-2.388;2023-12-28T16:49:53;24.10;;;2.20;;
43803;SDS011;29430;52.924;-2.388;2023-12-28T16:54:45;17.23;;;2.35;;
43803;SDS011;29430;52.924;-2.388;2023-12-28T16:59:37;12.93;;;1.33;;
43803;SDS011;29430;52.924;-2.388;2023-12-28T17:04:29;15.35;;;1.23;;
43803;SDS011;29430;52.924;-2.388;2023-12-28T17:09:21;10.52;;;0.98;;
43803;SDS011;29430;52.924;-2.388;2023-12-28T17:14:13;15.25;;;2.67;;
43803;SDS011;29430;52.924;-2.388;2023-12-28T17:19:05;12.15;;;1.60;;
43803;SDS011;29430;52.924;-2.388;2023-12-28T17:23:58;17.40;;;1.58;;
43803;SDS011;29430;52.924;-2.388;2023-12-28T17:28:56;13.98;;;1.20;;
43803;SDS011;29430;52.924;-2.388;2023-12-28T17:33:49;16.83;;;1.13;;
43803;SDS011;29430;52.924;-2.388;2023-12-28T17:38:41;18.80;;;1.17;;
43803;SDS011;29430;52.924;-2.388;2023-12-28T17:43:37;17.98;;;1.45;;
43803;SDS011;29430;52.924;-2.388;2023-12-28T17:48:30;15.63;;;1.33;;
43803;SDS011;29430;52.924;-2.388;2023-12-28T17:53:25;19.73;;;1.50;;
43803;SDS011;29430;52.924;-2.388;2023-12-28T17:58:17;15.32;;;1.52;;
43803;SDS011;29430;52.924;-2.388;2023-12-28T18:03:09;18.77;;;2.65;;
43803;SDS011;29430;52.924;-2.388;2023-12-28T18:08:00;18.05;;;2.00;;
43803;SDS011;29430;52.924;-2.388;2023-12-28T18:12:53;20.00;;;2.55;;
43803;SDS011;29430;52.924;-2.388;2023-12-28T18:17:45;26.65;;;3.75;;
43803;SDS011;29430;52.924;-2.388;2023-12-28T18:22:37;19.08;;;3.05;;
43803;SDS011;29430;52.924;-2.388;2023-12-28T18:27:29;21.13;;;2.17;;
43803;SDS011;29430;52.924;-2.388;2023-12-28T18:32:22;18.85;;;2.28;;
43803;SDS011;29430;52.924;-2.388;2023-12-28T18:37:15;24.75;;;3.50;;
43803;SDS011;29430;52.924;-2.388;2023-12-28T18:42:08;24.65;;;2.25;;
43803;SDS011;29430;52.924;-2.388;2023-12-28T18:47:03;23.23;;;1.80;;
43803;SDS011;29430;52.924;-2.388;2023-12-28T18:51:56;13.57;;;1.02;;
43803;SDS011;29430;52.924;-2.388;2023-12-28T18:56:47;22.27;;;3.20;;
43803;SDS011;29430;52.924;-2.388;2023-12-28T19:01:39;19.67;;;1.60;;
43803;SDS011;29430;52.924;-2.388;2023-12-28T19:06:31;16.77;;;1.90;;
43803;SDS011;29430;52.924;-2.388;2023-12-28T19:11:23;16.02;;;1.98;;
43803;SDS011;29430;52.924;-2.388;2023-12-28T19:16:18;17.98;;;2.15;;
43803;SDS011;29430;52.924;-2.388;2023-12-28T19:21:14;22.40;;;1.30;;
43803;SDS011;29430;52.924;-2.388;2023-12-28T19:26:06;19.98;;;2.03;;
43803;SDS011;29430;52.924;-2.388;2023-12-28T19:30:58;18.73;;;2.00;;
43803;SDS011;29430;52.924;-2.388;2023-12-28T19:35:50;12.00;;;1.52;;
43803;SDS011;29430;52.924;-2.388;2023-12-28T19:40:42;15.43;;;1.73;;
43803;SDS011;29430;52.924;-2.388;2023-12-28T19:45:33;19.45;;;1.60;;
43803;SDS011;29430;52.924;-2.388;2023-12-28T19:50:25;20.13;;;1.25;;
43803;SDS011;29430;52.924;-2.388;2023-12-28T19:55:17;16.55;;;1.65;;
43803;SDS011;29430;52.924;-2.388;2023-12-28T20:00:08;18.70;;;1.42;;
43803;SDS011;29430;52.924;-2.388;2023-12-28T20:05:05;14.65;;;1.17;;
43803;SDS011;29430;52.924;-2.388;2023-12-28T20:10:00;9.80;;;1.00;;
43803;SDS011;29430;52.924;-2.388;2023-12-28T20:14:52;13.77;;;1.35;;
43803;SDS011;29430;52.924;-2.388;2023-12-28T20:20:02;16.00;;;1.08;;
43803;SDS011;29430;52.924;-2.388;2023-12-28T20:24:55;9.70;;;0.90;;
43803;SDS011;29430;52.924;-2.388;2023-12-28T20:29:47;8.68;;;0.77;;
43803;SDS011;29430;52.924;-2.388;2023-12-28T20:34:38;8.52;;;1.70;;
43803;SDS011;29430;52.924;-2.388;2023-12-28T20:39:30;13.25;;;1.80;;
43803;SDS011;29430;52.924;-2.388;2023-12-28T20:44:22;14.45;;;1.15;;
43803;SDS011;29430;52.924;-2.388;2023-12-28T20:49:13;18.58;;;1.15;;
43803;SDS011;29430;52.924;-2.388;2023-12-28T20:54:06;18.77;;;2.08;;
43803;SDS011;29430;52.924;-2.388;2023-12-28T20:58:58;18.15;;;1.45;;
43803;SDS011;29430;52.924;-2.388;2023-12-28T21:03:49;19.30;;;2.15;;
43803;SDS011;29430;52.924;-2.388;2023-12-28T21:08:41;16.40;;;1.60;;
43803;SDS011;29430;52.924;-2.388;2023-12-28T21:13:33;20.17;;;1.35;;
43803;SDS011;29430;52.924;-2.388;2023-12-28T21:18:29;17.92;;;1.83;;
43803;SDS011;29430;52.924;-2.388;2023-12-28T21:23:22;21.75;;;1.85;;
43803;SDS011;29430;52.924;-2.388;2023-12-28T21:28:14;17.90;;;1.33;;
43803;SDS011;29430;52.924;-2.388;2023-12-28T21:33:05;18.50;;;1.70;;
43803;SDS011;29430;52.924;-2.388;2023-12-28T21:37:59;15.07;;;1.35;;
43803;SDS011;29430;52.924;-2.388;2023-12-28T21:42:51;16.27;;;0.98;;
43803;SDS011;29430;52.924;-2.388;2023-12-28T21:47:45;17.50;;;2.20;;
43803;SDS011;29430;52.924;-2.388;2023-12-28T21:52:37;18.75;;;1.50;;
43803;SDS011;29430;52.924;-2.388;2023-12-28T21:57:28;14.57;;;1.30;;
43803;SDS011;29430;52.924;-2.388;2023-12-28T22:02:20;21.95;;;1.88;;
43803;SDS011;29430;52.924;-2.388;2023-12-28T22:07:12;20.45;;;2.13;;
43803;SDS011;29430;52.924;-2.388;2023-12-28T22:12:04;21.70;;;1.92;;
43803;SDS011;29430;52.924;-2.388;2023-12-28T22:16:56;21.42;;;1.80;;
43803;SDS011;29430;52.924;-2.388;2023-12-28T22:21:48;13.05;;;1.90;;
43803;SDS011;29430;52.924;-2.388;2023-12-28T22:26:40;15.70;;;2.17;;
43803;SDS011;29430;52.924;-2.388;2023-12-28T22:31:33;12.40;;;1.38;;
43803;SDS011;29430;52.924;-2.388;2023-12-28T22:36:25;16.52;;;1.17;;
43803;SDS011;29430;52.924;-2.388;2023-12-28T22:41:18;19.98;;;1.88;;
43803;SDS011;29430;52.924;-2.388;2023-12-28T22:46:10;15.15;;;0.80;;
43803;SDS011;29430;52.924;-2.388;2023-12-28T22:51:03;10.82;;;1.10;;
43803;SDS011;29430;52.924;-2.388;2023-12-28T22:55:55;11.68;;;1.08;;
43803;SDS011;29430;52.924;-2.388;2023-12-28T23:00:46;16.27;;;0.95;;
43803;SDS011;29430;52.924;-2.388;2023-12-28T23:05:38;11.32;;;1.20;;
43803;SDS011;29430;52.924;-2.388;2023-12-28T23:10:30;14.43;;;0.95;;
43803;SDS011;29430;52.924;-2.388;2023-12-28T23:15:22;12.65;;;0.80;;
43803;SDS011;29430;52.924;-2.388;2023-12-28T23:20:14;22.33;;;2.13;;
43803;SDS011;29430;52.924;-2.388;2023-12-28T23:25:05;12.52;;;1.33;;
43803;SDS011;29430;52.924;-2.388;2023-12-28T23:29:58;12.27;;;1.02;;
43803;SDS011;29430;52.924;-2.388;2023-12-28T23:34:50;16.75;;;1.35;;
43803;SDS011;29430;52.924;-2.388;2023-12-28T23:39:41;12.18;;;0.70;;
43803;SDS011;29430;52.924;-2.388;2023-12-28T23:44:33;11.70;;;1.00;;
43803;SDS011;29430;52.924;-2.388;2023-12-28T23:49:25;14.57;;;1.70;;
43803;SDS011;29430;52.924;-2.388;2023-12-28T23:54:17;13.10;;;1.20;;
43803;SDS011;29430;52.924;-2.388;2023-12-28T23:59:08;10.50;;;0.55;;
